sensor_id;sensor_type;location;lat;lon;timestamp;temperature;humidity
40287;DHT22;25998;46.604;13.610;2023-11-18T00:02:08;4.10;98.50
40287;DHT22;25998;46.604;13.610;2023-11-18T00:05:19;4.00;98.30
40287;DHT22;25998;46.604;13.610;2023-11-18T00:08:31;3.90;98.70
40287;DHT22;25998;46.604;13.610;2023-11-18T00:11:42;3.90;99.20
40287;DHT22;25998;46.604;13.610;2023-11-18T00:14:53;3.90;99.00
40287;DHT22;25998;46.604;13.610;2023-11-18T00:18:04;4.00;99.00
40287;DHT22;25998;46.604;13.610;2023-11-18T00:21:15;4.00;99.10
40287;DHT22;25998;46.604;13.610;2023-11-18T00:24:26;3.90;99.20
40287;DHT22;25998;46.604;13.610;2023-11-18T00:27:37;4.20;99.40
40287;DHT22;25998;46.604;13.610;2023-11-18T00:30:48;4.30;98.60
40287;DHT22;25998;46.604;13.610;2023-11-18T00:33:58;4.10;98.60
40287;DHT22;25998;46.604;13.610;2023-11-18T00:37:09;4.10;98.60
40287;DHT22;25998;46.604;13.610;2023-11-18T00:40:20;4.10;98.90
40287;DHT22;25998;46.604;13.610;2023-11-18T00:43:31;4.10;99.30
40287;DHT22;25998;46.604;13.610;2023-11-18T00:46:42;4.30;99.50
40287;DHT22;25998;46.604;13.610;2023-11-18T00:49:56;4.30;99.00
40287;DHT22;25998;46.604;13.610;2023-11-18T00:53:12;4.30;99.30
40287;DHT22;25998;46.604;13.610;2023-11-18T00:56:23;4.30;99.10
40287;DHT22;25998;46.604;13.610;2023-11-18T00:59:34;4.30;99.10
40287;DHT22;25998;46.604;13.610;2023-11-18T01:02:45;4.30;99.30
40287;DHT22;25998;46.604;13.610;2023-11-18T01:05:58;4.40;99.20
40287;DHT22;25998;46.604;13.610;2023-11-18T01:09:09;4.20;99.10
40287;DHT22;25998;46.604;13.610;2023-11-18T01:12:21;4.20;99.50
40287;DHT22;25998;46.604;13.610;2023-11-18T01:15:32;4.30;99.20
40287;DHT22;25998;46.604;13.610;2023-11-18T01:18:43;4.00;99.60
40287;DHT22;25998;46.604;13.610;2023-11-18T01:21:55;3.90;99.80
40287;DHT22;25998;46.604;13.610;2023-11-18T01:25:07;3.90;99.70
40287;DHT22;25998;46.604;13.610;2023-11-18T01:28:19;3.80;99.90
40287;DHT22;25998;46.604;13.610;2023-11-18T01:31:30;3.90;99.90
40287;DHT22;25998;46.604;13.610;2023-11-18T01:34:41;4.00;99.70
40287;DHT22;25998;46.604;13.610;2023-11-18T01:37:54;3.90;99.60
40287;DHT22;25998;46.604;13.610;2023-11-18T01:41:06;3.90;99.90
40287;DHT22;25998;46.604;13.610;2023-11-18T01:44:17;3.80;99.90
40287;DHT22;25998;46.604;13.610;2023-11-18T01:47:32;3.70;99.90
40287;DHT22;25998;46.604;13.610;2023-11-18T01:50:44;3.60;99.90
40287;DHT22;25998;46.604;13.610;2023-11-18T01:53:55;3.70;99.90
40287;DHT22;25998;46.604;13.610;2023-11-18T01:57:07;3.60;99.90
40287;DHT22;25998;46.604;13.610;2023-11-18T02:00:22;3.80;99.90
40287;DHT22;25998;46.604;13.610;2023-11-18T02:03:34;4.00;99.90
40287;DHT22;25998;46.604;13.610;2023-11-18T02:06:48;4.10;99.70
40287;DHT22;25998;46.604;13.610;2023-11-18T02:09:59;3.90;99.40
40287;DHT22;25998;46.604;13.610;2023-11-18T02:13:17;3.70;99.70
40287;DHT22;25998;46.604;13.610;2023-11-18T02:16:31;3.70;99.90
40287;DHT22;25998;46.604;13.610;2023-11-18T02:19:43;3.70;99.80
40287;DHT22;25998;46.604;13.610;2023-11-18T02:22:55;3.60;99.80
40287;DHT22;25998;46.604;13.610;2023-11-18T02:26:06;3.40;99.90
40287;DHT22;25998;46.604;13.610;2023-11-18T02:29:17;3.40;99.90
40287;DHT22;25998;46.604;13.610;2023-11-18T02:32:29;3.50;99.90
40287;DHT22;25998;46.604;13.610;2023-11-18T02:35:53;3.70;99.90
40287;DHT22;25998;46.604;13.610;2023-11-18T02:39:34;3.80;99.90
40287;DHT22;25998;46.604;13.610;2023-11-18T02:42:51;3.90;99.90
40287;DHT22;25998;46.604;13.610;2023-11-18T02:46:04;3.80;99.70
40287;DHT22;25998;46.604;13.610;2023-11-18T02:49:17;3.70;99.90
40287;DHT22;25998;46.604;13.610;2023-11-18T02:52:28;3.50;99.90
40287;DHT22;25998;46.604;13.610;2023-11-18T02:55:39;3.40;99.90
40287;DHT22;25998;46.604;13.610;2023-11-18T02:58:51;3.30;99.90
40287;DHT22;25998;46.604;13.610;2023-11-18T03:02:02;3.40;99.90
40287;DHT22;25998;46.604;13.610;2023-11-18T03:05:13;3.10;99.90
40287;DHT22;25998;46.604;13.610;2023-11-18T03:08:24;3.00;99.90
40287;DHT22;25998;46.604;13.610;2023-11-18T03:11:35;2.90;99.90
40287;DHT22;25998;46.604;13.610;2023-11-18T03:14:46;3.00;99.90
40287;DHT22;25998;46.604;13.610;2023-11-18T03:17:56;2.90;99.90
40287;DHT22;25998;46.604;13.610;2023-11-18T03:21:14;2.80;99.90
40287;DHT22;25998;46.604;13.610;2023-11-18T03:24:25;2.80;99.90
40287;DHT22;25998;46.604;13.610;2023-11-18T03:27:36;2.80;99.90
40287;DHT22;25998;46.604;13.610;2023-11-18T03:30:47;2.70;99.90
40287;DHT22;25998;46.604;13.610;2023-11-18T03:33:58;2.80;99.90
40287;DHT22;25998;46.604;13.610;2023-11-18T03:37:09;2.80;99.90
40287;DHT22;25998;46.604;13.610;2023-11-18T03:40:20;2.70;99.90
40287;DHT22;25998;46.604;13.610;2023-11-18T03:43:30;2.80;99.90
40287;DHT22;25998;46.604;13.610;2023-11-18T03:46:41;2.70;99.90
40287;DHT22;25998;46.604;13.610;2023-11-18T03:49:53;2.60;99.90
40287;DHT22;25998;46.604;13.610;2023-11-18T03:53:06;2.80;99.90
40287;DHT22;25998;46.604;13.610;2023-11-18T03:56:17;2.80;99.90
40287;DHT22;25998;46.604;13.610;2023-11-18T03:59:31;2.70;99.90
40287;DHT22;25998;46.604;13.610;2023-11-18T04:02:42;2.70;99.90
40287;DHT22;25998;46.604;13.610;2023-11-18T04:05:56;2.80;99.90
40287;DHT22;25998;46.604;13.610;2023-11-18T04:09:06;2.90;99.90
40287;DHT22;25998;46.604;13.610;2023-11-18T04:12:20;3.00;99.90
40287;DHT22;25998;46.604;13.610;2023-11-18T04:15:31;2.90;99.90
40287;DHT22;25998;46.604;13.610;2023-11-18T04:18:44;2.80;99.90
40287;DHT22;25998;46.604;13.610;2023-11-18T04:21:55;2.80;99.90
40287;DHT22;25998;46.604;13.610;2023-11-18T04:25:08;2.80;99.90
40287;DHT22;25998;46.604;13.610;2023-11-18T04:28:19;2.90;99.90
40287;DHT22;25998;46.604;13.610;2023-11-18T04:31:31;2.90;99.90
40287;DHT22;25998;46.604;13.610;2023-11-18T04:34:41;2.80;99.90
40287;DHT22;25998;46.604;13.610;2023-11-18T04:37:53;2.90;99.90
40287;DHT22;25998;46.604;13.610;2023-11-18T04:41:04;2.70;99.90
40287;DHT22;25998;46.604;13.610;2023-11-18T04:44:15;2.60;99.90
40287;DHT22;25998;46.604;13.610;2023-11-18T04:47:26;2.60;99.90
40287;DHT22;25998;46.604;13.610;2023-11-18T04:50:39;2.50;99.90
40287;DHT22;25998;46.604;13.610;2023-11-18T04:53:50;2.50;99.90
40287;DHT22;25998;46.604;13.610;2023-11-18T04:57:01;2.50;99.90
40287;DHT22;25998;46.604;13.610;2023-11-18T05:00:13;2.70;99.90
40287;DHT22;25998;46.604;13.610;2023-11-18T05:03:27;2.60;99.90
40287;DHT22;25998;46.604;13.610;2023-11-18T05:06:38;2.60;99.90
40287;DHT22;25998;46.604;13.610;2023-11-18T05:09:48;2.70;99.90
40287;DHT22;25998;46.604;13.610;2023-11-18T05:13:00;2.90;99.90
40287;DHT22;25998;46.604;13.610;2023-11-18T05:16:11;3.00;99.90
40287;DHT22;25998;46.604;13.610;2023-11-18T05:19:22;2.90;99.90
40287;DHT22;25998;46.604;13.610;2023-11-18T05:22:33;3.00;99.90
40287;DHT22;25998;46.604;13.610;2023-11-18T05:25:44;3.10;99.90
40287;DHT22;25998;46.604;13.610;2023-11-18T05:28:55;3.10;99.90
40287;DHT22;25998;46.604;13.610;2023-11-18T05:32:06;3.10;99.90
40287;DHT22;25998;46.604;13.610;2023-11-18T05:35:17;2.80;99.90
40287;DHT22;25998;46.604;13.610;2023-11-18T05:38:28;2.80;99.90
40287;DHT22;25998;46.604;13.610;2023-11-18T05:41:43;2.90;99.90
40287;DHT22;25998;46.604;13.610;2023-11-18T05:44:56;3.00;99.90
40287;DHT22;25998;46.604;13.610;2023-11-18T05:48:10;2.90;99.90
40287;DHT22;25998;46.604;13.610;2023-11-18T05:51:23;2.80;99.90
40287;DHT22;25998;46.604;13.610;2023-11-18T05:54:34;2.70;99.90
40287;DHT22;25998;46.604;13.610;2023-11-18T05:57:45;2.70;99.90
40287;DHT22;25998;46.604;13.610;2023-11-18T06:00:58;2.70;99.90
40287;DHT22;25998;46.604;13.610;2023-11-18T06:04:09;2.70;99.90
40287;DHT22;25998;46.604;13.610;2023-11-18T06:07:20;2.80;99.90
40287;DHT22;25998;46.604;13.610;2023-11-18T06:10:31;2.80;99.90
40287;DHT22;25998;46.604;13.610;2023-11-18T06:16:58;2.50;99.90
40287;DHT22;25998;46.604;13.610;2023-11-18T06:20:10;2.50;99.90
40287;DHT22;25998;46.604;13.610;2023-11-18T06:23:30;2.50;99.90
40287;DHT22;25998;46.604;13.610;2023-11-18T06:26:43;2.60;99.90
40287;DHT22;25998;46.604;13.610;2023-11-18T06:29:55;2.70;99.90
40287;DHT22;25998;46.604;13.610;2023-11-18T06:33:11;2.70;99.90
40287;DHT22;25998;46.604;13.610;2023-11-18T06:36:23;2.70;99.90
40287;DHT22;25998;46.604;13.610;2023-11-18T06:39:41;2.80;99.90
40287;DHT22;25998;46.604;13.610;2023-11-18T06:42:54;2.80;99.90
40287;DHT22;25998;46.604;13.610;2023-11-18T06:46:12;2.80;99.90
40287;DHT22;25998;46.604;13.610;2023-11-18T06:49:24;2.60;99.90
40287;DHT22;25998;46.604;13.610;2023-11-18T06:52:38;2.50;99.90
40287;DHT22;25998;46.604;13.610;2023-11-18T06:55:49;2.50;99.90
40287;DHT22;25998;46.604;13.610;2023-11-18T06:59:00;2.50;99.90
40287;DHT22;25998;46.604;13.610;2023-11-18T07:02:11;2.40;99.90
40287;DHT22;25998;46.604;13.610;2023-11-18T07:05:22;2.40;99.90
40287;DHT22;25998;46.604;13.610;2023-11-18T07:08:34;2.50;99.90
40287;DHT22;25998;46.604;13.610;2023-11-18T07:11:45;2.50;99.90
40287;DHT22;25998;46.604;13.610;2023-11-18T07:14:57;2.50;99.90
40287;DHT22;25998;46.604;13.610;2023-11-18T07:18:08;2.60;99.90
40287;DHT22;25998;46.604;13.610;2023-11-18T07:21:19;2.60;99.90
40287;DHT22;25998;46.604;13.610;2023-11-18T07:24:31;2.70;99.90
40287;DHT22;25998;46.604;13.610;2023-11-18T07:27:42;2.70;99.90
40287;DHT22;25998;46.604;13.610;2023-11-18T07:30:53;2.80;99.90
40287;DHT22;25998;46.604;13.610;2023-11-18T07:34:04;2.80;99.90
40287;DHT22;25998;46.604;13.610;2023-11-18T07:37:25;2.80;99.90
40287;DHT22;25998;46.604;13.610;2023-11-18T07:40:40;2.90;99.90
40287;DHT22;25998;46.604;13.610;2023-11-18T07:43:56;2.90;99.90
40287;DHT22;25998;46.604;13.610;2023-11-18T07:47:07;3.00;99.90
40287;DHT22;25998;46.604;13.610;2023-11-18T07:50:18;3.00;99.90
40287;DHT22;25998;46.604;13.610;2023-11-18T07:53:39;3.00;99.90
40287;DHT22;25998;46.604;13.610;2023-11-18T07:56:50;3.00;99.90
40287;DHT22;25998;46.604;13.610;2023-11-18T08:00:04;3.10;99.90
40287;DHT22;25998;46.604;13.610;2023-11-18T08:03:22;3.10;99.90
40287;DHT22;25998;46.604;13.610;2023-11-18T08:06:33;3.20;99.90
40287;DHT22;25998;46.604;13.610;2023-11-18T08:09:44;3.20;99.90
40287;DHT22;25998;46.604;13.610;2023-11-18T08:12:55;3.30;99.90
40287;DHT22;25998;46.604;13.610;2023-11-18T08:16:06;3.40;99.90
40287;DHT22;25998;46.604;13.610;2023-11-18T08:19:19;3.40;99.90
40287;DHT22;25998;46.604;13.610;2023-11-18T08:22:29;3.40;99.90
40287;DHT22;25998;46.604;13.610;2023-11-18T08:25:41;3.50;99.90
40287;DHT22;25998;46.604;13.610;2023-11-18T08:28:52;3.60;99.90
40287;DHT22;25998;46.604;13.610;2023-11-18T08:32:03;3.70;99.90
40287;DHT22;25998;46.604;13.610;2023-11-18T08:35:14;4.00;99.90
40287;DHT22;25998;46.604;13.610;2023-11-18T08:38:26;5.00;99.90
40287;DHT22;25998;46.604;13.610;2023-11-18T08:41:38;5.90;99.90
40287;DHT22;25998;46.604;13.610;2023-11-18T08:44:49;7.00;98.90
40287;DHT22;25998;46.604;13.610;2023-11-18T08:48:02;7.70;96.60
40287;DHT22;25998;46.604;13.610;2023-11-18T08:51:21;8.50;95.80
40287;DHT22;25998;46.604;13.610;2023-11-18T08:54:32;9.20;95.80
40287;DHT22;25998;46.604;13.610;2023-11-18T08:57:49;9.60;94.80
40287;DHT22;25998;46.604;13.610;2023-11-18T09:01:08;10.00;93.60
40287;DHT22;25998;46.604;13.610;2023-11-18T09:04:28;10.20;92.60
40287;DHT22;25998;46.604;13.610;2023-11-18T09:07:39;10.30;93.60
40287;DHT22;25998;46.604;13.610;2023-11-18T09:10:50;10.50;91.80
40287;DHT22;25998;46.604;13.610;2023-11-18T09:14:04;10.70;90.90
40287;DHT22;25998;46.604;13.610;2023-11-18T09:17:17;10.90;91.40
40287;DHT22;25998;46.604;13.610;2023-11-18T09:20:28;11.00;92.00
40287;DHT22;25998;46.604;13.610;2023-11-18T09:23:42;11.30;91.70
40287;DHT22;25998;46.604;13.610;2023-11-18T09:26:54;11.50;92.90
40287;DHT22;25998;46.604;13.610;2023-11-18T09:30:07;11.80;91.00
40287;DHT22;25998;46.604;13.610;2023-11-18T09:33:27;11.70;91.50
40287;DHT22;25998;46.604;13.610;2023-11-18T09:36:45;11.60;91.70
40287;DHT22;25998;46.604;13.610;2023-11-18T09:39:56;11.60;92.50
40287;DHT22;25998;46.604;13.610;2023-11-18T09:43:09;11.60;92.20
40287;DHT22;25998;46.604;13.610;2023-11-18T09:46:24;11.80;92.00
40287;DHT22;25998;46.604;13.610;2023-11-18T09:49:40;12.00;92.30
40287;DHT22;25998;46.604;13.610;2023-11-18T09:52:59;12.00;91.80
40287;DHT22;25998;46.604;13.610;2023-11-18T10:00:05;12.00;92.40
40287;DHT22;25998;46.604;13.610;2023-11-18T10:03:31;12.10;91.60
40287;DHT22;25998;46.604;13.610;2023-11-18T10:06:49;11.90;91.80
40287;DHT22;25998;46.604;13.610;2023-11-18T10:10:04;11.60;89.50
40287;DHT22;25998;46.604;13.610;2023-11-18T10:13:24;11.80;83.80
40287;DHT22;25998;46.604;13.610;2023-11-18T10:16:35;12.10;84.00
40287;DHT22;25998;46.604;13.610;2023-11-18T10:19:58;12.00;88.40
40287;DHT22;25998;46.604;13.610;2023-11-18T10:23:23;11.80;92.00
40287;DHT22;25998;46.604;13.610;2023-11-18T10:26:34;11.80;91.70
40287;DHT22;25998;46.604;13.610;2023-11-18T10:29:48;11.70;91.40
40287;DHT22;25998;46.604;13.610;2023-11-18T10:32:59;11.70;89.00
40287;DHT22;25998;46.604;13.610;2023-11-18T10:36:21;12.30;87.30
40287;DHT22;25998;46.604;13.610;2023-11-18T10:39:34;12.60;84.40
40287;DHT22;25998;46.604;13.610;2023-11-18T10:42:45;12.40;84.90
40287;DHT22;25998;46.604;13.610;2023-11-18T10:46:07;12.40;82.20
40287;DHT22;25998;46.604;13.610;2023-11-18T10:49:22;12.40;83.80
40287;DHT22;25998;46.604;13.610;2023-11-18T10:52:33;12.60;86.60
40287;DHT22;25998;46.604;13.610;2023-11-18T10:55:51;12.60;83.30
40287;DHT22;25998;46.604;13.610;2023-11-18T10:59:06;12.70;86.50
40287;DHT22;25998;46.604;13.610;2023-11-18T11:02:20;12.70;84.20
40287;DHT22;25998;46.604;13.610;2023-11-18T11:05:34;12.70;82.60
40287;DHT22;25998;46.604;13.610;2023-11-18T11:08:54;12.80;80.60
40287;DHT22;25998;46.604;13.610;2023-11-18T11:12:11;13.00;81.20
40287;DHT22;25998;46.604;13.610;2023-11-18T11:15:31;13.10;80.70
40287;DHT22;25998;46.604;13.610;2023-11-18T11:19:03;13.10;80.70
40287;DHT22;25998;46.604;13.610;2023-11-18T11:22:24;12.90;81.30
40287;DHT22;25998;46.604;13.610;2023-11-18T11:29:13;12.50;78.60
40287;DHT22;25998;46.604;13.610;2023-11-18T11:32:32;12.40;77.60
40287;DHT22;25998;46.604;13.610;2023-11-18T11:35:53;12.50;78.20
40287;DHT22;25998;46.604;13.610;2023-11-18T11:39:08;12.80;77.90
40287;DHT22;25998;46.604;13.610;2023-11-18T11:42:26;12.70;78.30
40287;DHT22;25998;46.604;13.610;2023-11-18T11:45:42;12.70;77.70
40287;DHT22;25998;46.604;13.610;2023-11-18T11:48:54;12.70;76.30
40287;DHT22;25998;46.604;13.610;2023-11-18T11:52:42;12.80;77.40
40287;DHT22;25998;46.604;13.610;2023-11-18T11:55:55;13.00;79.60
40287;DHT22;25998;46.604;13.610;2023-11-18T11:59:16;13.20;77.20
40287;DHT22;25998;46.604;13.610;2023-11-18T12:02:27;13.00;72.50
40287;DHT22;25998;46.604;13.610;2023-11-18T12:05:43;13.00;72.70
40287;DHT22;25998;46.604;13.610;2023-11-18T12:08:57;13.10;74.10
40287;DHT22;25998;46.604;13.610;2023-11-18T12:12:17;13.30;73.60
40287;DHT22;25998;46.604;13.610;2023-11-18T12:15:48;13.40;74.10
40287;DHT22;25998;46.604;13.610;2023-11-18T12:19:32;13.20;74.30
40287;DHT22;25998;46.604;13.610;2023-11-18T12:23:13;13.00;72.00
40287;DHT22;25998;46.604;13.610;2023-11-18T12:26:40;13.20;75.00
40287;DHT22;25998;46.604;13.610;2023-11-18T12:29:53;13.10;70.50
40287;DHT22;25998;46.604;13.610;2023-11-18T12:33:06;13.20;73.20
40287;DHT22;25998;46.604;13.610;2023-11-18T12:40:14;13.00;72.30
40287;DHT22;25998;46.604;13.610;2023-11-18T12:43:48;12.70;72.20
40287;DHT22;25998;46.604;13.610;2023-11-18T12:47:01;12.80;76.90
40287;DHT22;25998;46.604;13.610;2023-11-18T12:50:37;12.80;76.30
40287;DHT22;25998;46.604;13.610;2023-11-18T12:53:50;13.00;76.90
40287;DHT22;25998;46.604;13.610;2023-11-18T12:57:04;12.90;80.10
40287;DHT22;25998;46.604;13.610;2023-11-18T13:00:18;12.50;77.60
40287;DHT22;25998;46.604;13.610;2023-11-18T13:03:38;12.50;80.50
40287;DHT22;25998;46.604;13.610;2023-11-18T13:06:48;12.50;78.00
40287;DHT22;25998;46.604;13.610;2023-11-18T13:10:02;12.70;78.90
40287;DHT22;25998;46.604;13.610;2023-11-18T13:13:15;12.60;74.70
40287;DHT22;25998;46.604;13.610;2023-11-18T13:16:28;12.70;78.00
40287;DHT22;25998;46.604;13.610;2023-11-18T13:19:40;12.50;77.00
40287;DHT22;25998;46.604;13.610;2023-11-18T13:22:51;12.50;79.20
40287;DHT22;25998;46.604;13.610;2023-11-18T13:26:03;12.60;77.60
40287;DHT22;25998;46.604;13.610;2023-11-18T13:29:16;12.40;81.10
40287;DHT22;25998;46.604;13.610;2023-11-18T13:32:31;12.10;80.80
40287;DHT22;25998;46.604;13.610;2023-11-18T13:35:42;12.00;77.10
40287;DHT22;25998;46.604;13.610;2023-11-18T13:38:53;11.70;78.90
40287;DHT22;25998;46.604;13.610;2023-11-18T13:42:24;11.70;79.70
40287;DHT22;25998;46.604;13.610;2023-11-18T13:45:40;11.80;82.70
40287;DHT22;25998;46.604;13.610;2023-11-18T13:48:53;11.80;82.50
40287;DHT22;25998;46.604;13.610;2023-11-18T13:52:06;11.80;80.00
40287;DHT22;25998;46.604;13.610;2023-11-18T13:55:22;11.60;83.70
40287;DHT22;25998;46.604;13.610;2023-11-18T13:58:38;11.70;83.40
40287;DHT22;25998;46.604;13.610;2023-11-18T14:01:49;11.40;83.60
40287;DHT22;25998;46.604;13.610;2023-11-18T14:05:02;11.20;78.30
40287;DHT22;25998;46.604;13.610;2023-11-18T14:08:18;11.10;79.30
40287;DHT22;25998;46.604;13.610;2023-11-18T14:11:30;11.00;77.90
40287;DHT22;25998;46.604;13.610;2023-11-18T14:14:41;10.90;81.50
40287;DHT22;25998;46.604;13.610;2023-11-18T14:17:52;10.90;81.50
40287;DHT22;25998;46.604;13.610;2023-11-18T14:21:03;10.90;83.10
40287;DHT22;25998;46.604;13.610;2023-11-18T14:24:16;10.80;85.00
40287;DHT22;25998;46.604;13.610;2023-11-18T14:27:28;10.80;86.30
40287;DHT22;25998;46.604;13.610;2023-11-18T14:30:39;10.80;85.40
40287;DHT22;25998;46.604;13.610;2023-11-18T14:33:51;10.70;85.90
40287;DHT22;25998;46.604;13.610;2023-11-18T14:37:02;10.50;86.50
40287;DHT22;25998;46.604;13.610;2023-11-18T14:40:13;10.50;88.10
40287;DHT22;25998;46.604;13.610;2023-11-18T14:43:29;10.40;87.20
40287;DHT22;25998;46.604;13.610;2023-11-18T14:46:42;10.20;87.90
40287;DHT22;25998;46.604;13.610;2023-11-18T14:49:57;10.10;87.70
40287;DHT22;25998;46.604;13.610;2023-11-18T14:53:08;9.80;88.90
40287;DHT22;25998;46.604;13.610;2023-11-18T14:56:19;9.60;89.10
40287;DHT22;25998;46.604;13.610;2023-11-18T14:59:30;9.40;90.20
40287;DHT22;25998;46.604;13.610;2023-11-18T15:02:41;9.40;90.30
40287;DHT22;25998;46.604;13.610;2023-11-18T15:05:52;9.10;90.40
40287;DHT22;25998;46.604;13.610;2023-11-18T15:09:03;8.90;90.90
40287;DHT22;25998;46.604;13.610;2023-11-18T15:12:14;8.70;90.10
40287;DHT22;25998;46.604;13.610;2023-11-18T15:15:30;8.60;90.50
40287;DHT22;25998;46.604;13.610;2023-11-18T15:18:42;8.70;90.50
40287;DHT22;25998;46.604;13.610;2023-11-18T15:21:53;8.50;91.10
40287;DHT22;25998;46.604;13.610;2023-11-18T15:25:05;8.30;91.40
40287;DHT22;25998;46.604;13.610;2023-11-18T15:28:21;8.20;91.50
40287;DHT22;25998;46.604;13.610;2023-11-18T15:31:32;8.30;91.20
40287;DHT22;25998;46.604;13.610;2023-11-18T15:34:42;8.20;91.10
40287;DHT22;25998;46.604;13.610;2023-11-18T15:37:53;8.30;90.70
40287;DHT22;25998;46.604;13.610;2023-11-18T15:41:05;8.30;91.10
40287;DHT22;25998;46.604;13.610;2023-11-18T15:44:16;8.20;91.70
40287;DHT22;25998;46.604;13.610;2023-11-18T15:47:27;8.30;90.90
40287;DHT22;25998;46.604;13.610;2023-11-18T15:50:38;8.20;91.20
40287;DHT22;25998;46.604;13.610;2023-11-18T15:53:49;8.20;91.10
40287;DHT22;25998;46.604;13.610;2023-11-18T15:57:00;8.10;91.20
40287;DHT22;25998;46.604;13.610;2023-11-18T16:00:11;8.20;91.20
40287;DHT22;25998;46.604;13.610;2023-11-18T16:03:26;8.20;91.00
40287;DHT22;25998;46.604;13.610;2023-11-18T16:06:38;8.10;90.90
40287;DHT22;25998;46.604;13.610;2023-11-18T16:09:48;7.90;91.10
40287;DHT22;25998;46.604;13.610;2023-11-18T16:13:00;8.00;91.50
40287;DHT22;25998;46.604;13.610;2023-11-18T16:16:12;7.90;91.10
40287;DHT22;25998;46.604;13.610;2023-11-18T16:19:23;7.50;91.30
40287;DHT22;25998;46.604;13.610;2023-11-18T16:22:34;7.00;91.50
40287;DHT22;25998;46.604;13.610;2023-11-18T16:25:45;6.80;92.10
40287;DHT22;25998;46.604;13.610;2023-11-18T16:28:57;6.70;92.70
40287;DHT22;25998;46.604;13.610;2023-11-18T16:32:11;6.70;91.70
40287;DHT22;25998;46.604;13.610;2023-11-18T16:35:23;6.60;92.30
40287;DHT22;25998;46.604;13.610;2023-11-18T16:38:34;6.40;92.30
40287;DHT22;25998;46.604;13.610;2023-11-18T16:41:45;6.30;92.50
40287;DHT22;25998;46.604;13.610;2023-11-18T16:44:56;6.20;92.90
40287;DHT22;25998;46.604;13.610;2023-11-18T16:48:07;6.10;92.40
40287;DHT22;25998;46.604;13.610;2023-11-18T16:51:18;6.00;92.80
40287;DHT22;25998;46.604;13.610;2023-11-18T16:54:29;5.90;93.00
40287;DHT22;25998;46.604;13.610;2023-11-18T16:57:40;5.80;92.70
40287;DHT22;25998;46.604;13.610;2023-11-18T17:00:51;5.70;93.30
40287;DHT22;25998;46.604;13.610;2023-11-18T17:04:03;5.70;92.70
40287;DHT22;25998;46.604;13.610;2023-11-18T17:07:13;5.70;93.20
40287;DHT22;25998;46.604;13.610;2023-11-18T17:10:24;5.70;93.10
40287;DHT22;25998;46.604;13.610;2023-11-18T17:13:35;5.70;92.90
40287;DHT22;25998;46.604;13.610;2023-11-18T17:16:46;5.70;92.40
40287;DHT22;25998;46.604;13.610;2023-11-18T17:19:57;5.70;92.60
40287;DHT22;25998;46.604;13.610;2023-11-18T17:23:11;5.50;92.90
40287;DHT22;25998;46.604;13.610;2023-11-18T17:26:22;5.40;93.40
40287;DHT22;25998;46.604;13.610;2023-11-18T17:29:34;5.40;93.20
40287;DHT22;25998;46.604;13.610;2023-11-18T17:32:46;5.60;92.60
40287;DHT22;25998;46.604;13.610;2023-11-18T17:35:58;5.70;92.40
40287;DHT22;25998;46.604;13.610;2023-11-18T17:39:09;5.90;92.60
40287;DHT22;25998;46.604;13.610;2023-11-18T17:42:22;5.80;92.40
40287;DHT22;25998;46.604;13.610;2023-11-18T17:45:33;5.60;92.30
40287;DHT22;25998;46.604;13.610;2023-11-18T17:48:44;5.40;93.40
40287;DHT22;25998;46.604;13.610;2023-11-18T17:51:55;5.30;93.30
40287;DHT22;25998;46.604;13.610;2023-11-18T17:55:07;5.30;93.20
40287;DHT22;25998;46.604;13.610;2023-11-18T17:58:22;5.30;93.50
40287;DHT22;25998;46.604;13.610;2023-11-18T18:01:33;5.10;93.10
40287;DHT22;25998;46.604;13.610;2023-11-18T18:04:44;5.10;93.10
40287;DHT22;25998;46.604;13.610;2023-11-18T18:07:55;5.20;93.40
40287;DHT22;25998;46.604;13.610;2023-11-18T18:11:07;5.20;93.60
40287;DHT22;25998;46.604;13.610;2023-11-18T18:14:18;5.20;92.90
40287;DHT22;25998;46.604;13.610;2023-11-18T18:17:29;5.00;93.20
40287;DHT22;25998;46.604;13.610;2023-11-18T18:20:40;4.90;94.40
40287;DHT22;25998;46.604;13.610;2023-11-18T18:23:58;4.80;94.70
40287;DHT22;25998;46.604;13.610;2023-11-18T18:27:09;4.80;94.10
40287;DHT22;25998;46.604;13.610;2023-11-18T18:30:20;4.80;93.60
40287;DHT22;25998;46.604;13.610;2023-11-18T18:33:31;4.70;94.60
40287;DHT22;25998;46.604;13.610;2023-11-18T18:36:42;4.70;94.20
40287;DHT22;25998;46.604;13.610;2023-11-18T18:39:52;4.60;94.80
40287;DHT22;25998;46.604;13.610;2023-11-18T18:43:03;4.50;94.70
40287;DHT22;25998;46.604;13.610;2023-11-18T18:46:16;4.50;94.90
40287;DHT22;25998;46.604;13.610;2023-11-18T18:49:27;4.60;94.50
40287;DHT22;25998;46.604;13.610;2023-11-18T18:52:39;4.70;94.00
40287;DHT22;25998;46.604;13.610;2023-11-18T18:55:50;5.00;94.80
40287;DHT22;25998;46.604;13.610;2023-11-18T18:59:01;5.20;94.00
40287;DHT22;25998;46.604;13.610;2023-11-18T19:02:12;5.30;94.50
40287;DHT22;25998;46.604;13.610;2023-11-18T19:05:23;5.30;94.60
40287;DHT22;25998;46.604;13.610;2023-11-18T19:08:35;5.40;94.50
40287;DHT22;25998;46.604;13.610;2023-11-18T19:11:45;5.50;93.70
40287;DHT22;25998;46.604;13.610;2023-11-18T19:14:56;5.20;93.80
40287;DHT22;25998;46.604;13.610;2023-11-18T19:18:07;5.10;94.90
40287;DHT22;25998;46.604;13.610;2023-11-18T19:21:18;5.00;94.60
40287;DHT22;25998;46.604;13.610;2023-11-18T19:24:29;5.20;95.30
40287;DHT22;25998;46.604;13.610;2023-11-18T19:27:41;5.20;94.20
40287;DHT22;25998;46.604;13.610;2023-11-18T19:30:52;5.00;94.60
40287;DHT22;25998;46.604;13.610;2023-11-18T19:34:03;4.80;95.00
40287;DHT22;25998;46.604;13.610;2023-11-18T19:37:14;4.90;95.00
40287;DHT22;25998;46.604;13.610;2023-11-18T19:40:25;4.90;95.20
40287;DHT22;25998;46.604;13.610;2023-11-18T19:43:37;4.90;94.90
40287;DHT22;25998;46.604;13.610;2023-11-18T19:46:48;4.80;95.00
40287;DHT22;25998;46.604;13.610;2023-11-18T19:50:01;4.70;95.20
40287;DHT22;25998;46.604;13.610;2023-11-18T19:53:14;4.60;95.10
40287;DHT22;25998;46.604;13.610;2023-11-18T19:56:25;4.70;95.30
40287;DHT22;25998;46.604;13.610;2023-11-18T19:59:36;4.70;95.30
40287;DHT22;25998;46.604;13.610;2023-11-18T20:02:47;4.70;95.20
40287;DHT22;25998;46.604;13.610;2023-11-18T20:05:59;4.70;95.20
40287;DHT22;25998;46.604;13.610;2023-11-18T20:09:10;4.70;95.20
40287;DHT22;25998;46.604;13.610;2023-11-18T20:12:21;4.70;95.20
40287;DHT22;25998;46.604;13.610;2023-11-18T20:15:32;5.00;95.60
40287;DHT22;25998;46.604;13.610;2023-11-18T20:18:43;5.00;95.40
40287;DHT22;25998;46.604;13.610;2023-11-18T20:21:54;5.10;95.50
40287;DHT22;25998;46.604;13.610;2023-11-18T20:25:06;4.90;95.50
40287;DHT22;25998;46.604;13.610;2023-11-18T20:28:21;4.70;95.60
40287;DHT22;25998;46.604;13.610;2023-11-18T20:31:31;4.60;95.70